Time;durP1;ratioP1;P1;durP2;ratioP2;P2;SDS_P1;SDS_P2;PMS_P1;PMS_P2;Temp;Humidity;BMP_temperature;BMP_pressure;BME280_temperature;BME280_humidity;BME280_pressure;Samples;Min_cycle;Max_cycle;Signal;HPM_P1;HPM_P2
2024/04/26 00:02:33;;;;;;;2.08;1.20;;;;;;;;;;10985671;26;20009;-60
2024/04/26 00:07:34;;;;;;;5.43;1.80;;;;;;;;;;10970325;26;20012;-60
2024/04/26 00:12:35;;;;;;;1.30;1.20;;;;;;;;;;10985684;27;20346;-61
2024/04/26 00:17:36;;;;;;;3.15;1.58;;;;;;;;;;10980212;27;20532;-61
2024/04/26 00:22:38;;;;;;;5.50;1.65;;;;;;;;;;10981837;27;20613;-61
2024/04/26 00:27:39;;;;;;;1.38;1.27;;;;;;;;;;10981726;26;20105;-61
2024/04/26 00:32:40;;;;;;;3.38;1.65;;;;;;;;;;10984018;26;20010;-62
2024/04/26 00:37:41;;;;;;;2.50;1.30;;;;;;;;;;10975811;26;20840;-62
2024/04/26 00:42:42;;;;;;;2.53;1.58;;;;;;;;;;10977986;27;20053;-62
2024/04/26 00:47:43;;;;;;;2.00;1.50;;;;;;;;;;10980034;27;20455;-62
2024/04/26 00:52:45;;;;;;;2.70;1.83;;;;;;;;;;10979344;26;20113;-62
2024/04/26 00:57:46;;;;;;;2.67;1.40;;;;;;;;;;10949951;27;20438;-62
2024/04/26 01:02:49;;;;;;;1.92;1.52;;;;;;;;;;10981728;26;20022;-62
2024/04/26 01:07:50;;;;;;;4.35;1.30;;;;;;;;;;10974499;27;20071;-62
2024/04/26 01:12:51;;;;;;;3.83;1.35;;;;;;;;;;10978583;27;20646;-63
2024/04/26 01:17:52;;;;;;;1.35;1.20;;;;;;;;;;10981638;27;20029;-62
2024/04/26 01:22:57;;;;;;;3.38;1.42;;;;;;;;;;10978886;26;20044;-62
2024/04/26 01:27:58;;;;;;;5.68;1.55;;;;;;;;;;10972907;26;20097;-62
2024/04/26 01:32:59;;;;;;;2.72;1.30;;;;;;;;;;10987791;26;20504;-63
2024/04/26 01:38:01;;;;;;;1.35;1.10;;;;;;;;;;10957222;27;20045;-62
2024/04/26 01:43:02;;;;;;;1.92;1.20;;;;;;;;;;10938532;26;20046;-62
2024/04/26 01:48:04;;;;;;;3.72;1.50;;;;;;;;;;10967996;27;20456;-62
2024/04/26 01:53:05;;;;;;;1.88;1.40;;;;;;;;;;10967821;26;20389;-62
2024/04/26 01:58:06;;;;;;;1.55;1.33;;;;;;;;;;10940741;27;20005;-62
2024/04/26 02:03:07;;;;;;;2.60;1.52;;;;;;;;;;10964705;26;20476;-62
2024/04/26 02:08:08;;;;;;;3.13;1.50;;;;;;;;;;10977254;27;20030;-62
2024/04/26 02:13:09;;;;;;;4.05;1.55;;;;;;;;;;10975939;26;20033;-62
2024/04/26 02:18:10;;;;;;;2.00;1.60;;;;;;;;;;10973900;27;20034;-62
2024/04/26 02:23:11;;;;;;;3.28;1.50;;;;;;;;;;10977784;26;20509;-62
2024/04/26 02:28:13;;;;;;;3.15;1.60;;;;;;;;;;10956660;27;20086;-63
2024/04/26 02:33:14;;;;;;;1.58;1.48;;;;;;;;;;10967346;26;20006;-62
2024/04/26 02:38:15;;;;;;;1.80;1.20;;;;;;;;;;10968685;27;20437;-61
2024/04/26 02:43:16;;;;;;;1.73;1.52;;;;;;;;;;10976208;26;20088;-62
2024/04/26 02:48:17;;;;;;;2.30;1.60;;;;;;;;;;10973948;26;20049;-62
2024/04/26 02:53:18;;;;;;;1.75;1.50;;;;;;;;;;10965606;26;20071;-62
2024/04/26 02:58:19;;;;;;;2.33;1.52;;;;;;;;;;10971293;27;20026;-62
2024/04/26 03:03:20;;;;;;;1.60;1.38;;;;;;;;;;10966413;27;20017;-62
2024/04/26 03:08:21;;;;;;;1.45;1.33;;;;;;;;;;10979926;26;20038;-62
2024/04/26 03:13:23;;;;;;;1.60;1.50;;;;;;;;;;10976838;26;20348;-62
2024/04/26 03:18:24;;;;;;;1.60;1.45;;;;;;;;;;10978365;26;20002;-62
2024/04/26 03:23:25;;;;;;;1.90;1.20;;;;;;;;;;10976447;26;20108;-62
2024/04/26 03:28:26;;;;;;;1.50;1.40;;;;;;;;;;10980790;26;20005;-62
2024/04/26 03:33:27;;;;;;;1.45;1.35;;;;;;;;;;10963857;26;20053;-62
2024/04/26 03:38:28;;;;;;;2.25;1.35;;;;;;;;;;10982639;27;20121;-62
2024/04/26 03:43:29;;;;;;;1.50;1.40;;;;;;;;;;10979136;26;20377;-61
2024/04/26 03:48:30;;;;;;;1.58;1.48;;;;;;;;;;10979248;26;20075;-61
2024/04/26 03:53:31;;;;;;;1.50;1.40;;;;;;;;;;10973169;26;20010;-62
2024/04/26 03:58:33;;;;;;;1.50;1.40;;;;;;;;;;10978078;27;20046;-61
2024/04/26 04:03:34;;;;;;;1.67;1.45;;;;;;;;;;10978361;27;20325;-62
2024/04/26 04:08:35;;;;;;;1.50;1.40;;;;;;;;;;10982806;26;20002;-61
2024/04/26 04:13:36;;;;;;;1.40;1.30;;;;;;;;;;10976764;27;20075;-61
2024/04/26 04:18:37;;;;;;;1.58;1.42;;;;;;;;;;10967540;27;20002;-61
2024/04/26 04:23:38;;;;;;;1.38;1.27;;;;;;;;;;10976574;26;20407;-61
2024/04/26 04:28:42;;;;;;;3.10;1.48;;;;;;;;;;10981738;26;20002;-61
2024/04/26 04:33:43;;;;;;;1.88;1.42;;;;;;;;;;10961221;26;19998;-62
2024/04/26 04:38:44;;;;;;;3.13;1.33;;;;;;;;;;10981046;26;20001;-62
2024/04/26 04:43:45;;;;;;;1.67;1.30;;;;;;;;;;10977871;26;20001;-62
2024/04/26 04:48:46;;;;;;;1.40;1.30;;;;;;;;;;11014871;26;20009;-61
2024/04/26 04:53:47;;;;;;;1.83;1.40;;;;;;;;;;11010199;26;20079;-61
2024/04/26 04:58:49;;;;;;;1.35;1.25;;;;;;;;;;10978738;26;20041;-61
2024/04/26 05:03:50;;;;;;;2.08;1.45;;;;;;;;;;10980328;26;19998;-61
2024/04/26 05:08:52;;;;;;;1.60;1.40;;;;;;;;;;10981150;26;20030;-61
2024/04/26 05:13:53;;;;;;;2.55;1.45;;;;;;;;;;10980857;26;20010;-61
2024/04/26 05:18:55;;;;;;;1.65;1.55;;;;;;;;;;10979949;27;20016;-61
2024/04/26 05:23:56;;;;;;;2.70;1.30;;;;;;;;;;10980234;26;19998;-61
2024/04/26 05:28:57;;;;;;;2.45;1.60;;;;;;;;;;10978587;27;20827;-63
2024/04/26 05:33:58;;;;;;;3.10;1.60;;;;;;;;;;10958595;27;20110;-62
2024/04/26 05:38:59;;;;;;;2.65;1.40;;;;;;;;;;10967490;26;20541;-62
2024/04/26 05:44:01;;;;;;;8.90;1.52;;;;;;;;;;10970192;27;20009;-61
2024/04/26 05:49:02;;;;;;;3.28;2.22;;;;;;;;;;10970648;27;20075;-60
2024/04/26 05:54:04;;;;;;;2.88;1.75;;;;;;;;;;10959860;27;20016;-60
2024/04/26 05:59:05;;;;;;;2.55;1.45;;;;;;;;;;10948165;27;20011;-60
2024/04/26 06:04:06;;;;;;;3.15;1.60;;;;;;;;;;10961619;26;20006;-60
2024/04/26 06:09:08;;;;;;;4.82;1.60;;;;;;;;;;10960505;27;20029;-60
2024/04/26 06:14:09;;;;;;;2.05;1.50;;;;;;;;;;10957156;26;20006;-59
2024/04/26 06:19:10;;;;;;;1.45;1.35;;;;;;;;;;10959290;27;20029;-60
2024/04/26 06:24:11;;;;;;;6.95;1.50;;;;;;;;;;10961305;27;20425;-59
2024/04/26 06:29:12;;;;;;;4.35;1.50;;;;;;;;;;10930339;26;20121;-59
2024/04/26 06:34:13;;;;;;;1.70;1.50;;;;;;;;;;10978702;26;20458;-59
2024/04/26 06:39:14;;;;;;;2.03;1.48;;;;;;;;;;10956487;26;20033;-59
2024/04/26 06:44:16;;;;;;;4.35;1.35;;;;;;;;;;10978976;27;20212;-59
2024/04/26 06:49:19;;;;;;;2.92;1.60;;;;;;;;;;10976982;27;20109;-59
2024/04/26 06:54:20;;;;;;;1.50;1.40;;;;;;;;;;10955625;27;21112;-58
2024/04/26 06:59:22;;;;;;;1.40;1.30;;;;;;;;;;10979483;26;20100;-60
2024/04/26 07:04:23;;;;;;;4.82;1.55;;;;;;;;;;10974198;26;19998;-58
2024/04/26 07:09:24;;;;;;;1.20;1.10;;;;;;;;;;10971906;27;20002;-59
2024/04/26 07:14:25;;;;;;;1.48;1.33;;;;;;;;;;10975790;27;19998;-59
2024/04/26 07:19:27;;;;;;;2.17;1.38;;;;;;;;;;10959786;27;20097;-59
2024/04/26 07:24:28;;;;;;;1.80;1.30;;;;;;;;;;10976671;26;20005;-59
2024/04/26 07:29:29;;;;;;;1.48;1.30;;;;;;;;;;10972876;27;20001;-60
2024/04/26 07:34:30;;;;;;;2.22;1.38;;;;;;;;;;10960104;26;20510;-59
2024/04/26 07:39:32;;;;;;;2.25;1.50;;;;;;;;;;10947046;27;19997;-59
2024/04/26 07:44:33;;;;;;;1.92;1.30;;;;;;;;;;10972206;26;20459;-59
2024/04/26 07:49:36;;;;;;;1.60;1.08;;;;;;;;;;10978302;27;20101;-59
2024/04/26 07:54:37;;;;;;;1.90;1.25;;;;;;;;;;10975388;26;20099;-59
2024/04/26 07:59:38;;;;;;;1.50;1.40;;;;;;;;;;10973998;27;20017;-59
2024/04/26 08:04:40;;;;;;;2.58;1.40;;;;;;;;;;10973282;26;20277;-59
2024/04/26 08:09:42;;;;;;;1.73;1.40;;;;;;;;;;10972371;26;20006;-59
2024/04/26 08:14:43;;;;;;;8.15;1.50;;;;;;;;;;10973930;26;20045;-59
2024/04/26 08:19:44;;;;;;;2.08;1.50;;;;;;;;;;10980753;26;20105;-61
2024/04/26 08:24:45;;;;;;;2.33;1.55;;;;;;;;;;10982169;27;20012;-61
2024/04/26 08:29:46;;;;;;;2.90;1.65;;;;;;;;;;10950361;27;20013;-59
2024/04/26 08:34:48;;;;;;;1.67;1.48;;;;;;;;;;10976249;26;20075;-59
2024/04/26 08:39:49;;;;;;;1.55;1.20;;;;;;;;;;10979850;27;20009;-59
2024/04/26 08:44:50;;;;;;;2.85;1.40;;;;;;;;;;10943699;26;20180;-60
2024/04/26 08:49:56;;;;;;;4.07;1.27;;;;;;;;;;10972088;27;20033;-59
2024/04/26 08:54:57;;;;;;;1.90;1.45;;;;;;;;;;10950917;27;20296;-59
2024/04/26 09:00:04;;;;;;;2.17;1.55;;;;;;;;;;10948581;27;20093;-59
2024/04/26 09:05:08;;;;;;;1.25;1.08;;;;;;;;;;10981619;26;20002;-59
2024/04/26 09:10:09;;;;;;;1.30;1.20;;;;;;;;;;10979814;27;20025;-60
2024/04/26 09:15:11;;;;;;;1.35;1.25;;;;;;;;;;10980205;26;20013;-61
2024/04/26 09:20:12;;;;;;;3.15;1.40;;;;;;;;;;10979150;27;20002;-59
2024/04/26 09:25:13;;;;;;;1.45;1.20;;;;;;;;;;10980411;26;20021;-59
2024/04/26 09:30:14;;;;;;;3.10;1.40;;;;;;;;;;11020507;26;20440;-59
2024/04/26 09:35:19;;;;;;;1.40;1.30;;;;;;;;;;10934624;27;20009;-59
2024/04/26 09:40:22;;;;;;;1.55;1.20;;;;;;;;;;10959575;27;20075;-60
2024/04/26 09:45:23;;;;;;;1.38;1.27;;;;;;;;;;10957435;26;20098;-60
2024/04/26 09:50:25;;;;;;;2.42;1.30;;;;;;;;;;10978357;26;20030;-59
2024/04/26 09:55:27;;;;;;;2.40;1.55;;;;;;;;;;10978528;26;20006;-60
2024/04/26 10:00:29;;;;;;;1.20;1.10;;;;;;;;;;10977749;27;20030;-60
2024/04/26 10:05:31;;;;;;;1.27;1.17;;;;;;;;;;10976300;26;20020;-59
2024/04/26 10:10:35;;;;;;;1.85;1.00;;;;;;;;;;10956901;27;20453;-59
2024/04/26 10:15:37;;;;;;;1.73;1.15;;;;;;;;;;10976765;27;20080;-59
2024/04/26 10:20:45;;;;;;;1.48;1.35;;;;;;;;;;10947342;27;20002;-60
2024/04/26 10:25:46;;;;;;;1.67;1.20;;;;;;;;;;10899228;27;20468;-60
2024/04/26 10:30:51;;;;;;;1.00;0.93;;;;;;;;;;10889639;27;20084;-59
2024/04/26 10:35:54;;;;;;;1.38;1.27;;;;;;;;;;10914701;27;20016;-60
2024/04/26 10:40:55;;;;;;;1.00;1.00;;;;;;;;;;10878928;27;20474;-59
2024/04/26 10:46:00;;;;;;;2.08;1.10;;;;;;;;;;10826936;27;20430;-60
2024/04/26 10:51:11;;;;;;;1.20;0.95;;;;;;;;;;10852290;27;20092;-59
2024/04/26 10:56:18;;;;;;;1.33;1.10;;;;;;;;;;10958578;27;20008;-59
2024/04/26 11:01:22;;;;;;;0.90;0.90;;;;;;;;;;10916253;27;20004;-60
2024/04/26 11:06:36;;;;;;;1.42;1.02;;;;;;;;;;10875263;27;20003;-59
2024/04/26 11:11:51;;;;;;;0.98;0.90;;;;;;;;;;10897574;27;20090;-60
2024/04/26 11:16:54;;;;;;;1.10;1.00;;;;;;;;;;10887464;27;20134;-60
2024/04/26 11:21:55;;;;;;;1.15;1.05;;;;;;;;;;10867317;27;20411;-60
2024/04/26 11:26:56;;;;;;;0.93;0.90;;;;;;;;;;11033134;26;20453;-60
2024/04/26 11:31:57;;;;;;;0.73;0.73;;;;;;;;;;11039381;26;20070;-60
2024/04/26 11:36:58;;;;;;;2.47;0.90;;;;;;;;;;11060703;26;20029;-60
2024/04/26 11:41:59;;;;;;;0.90;0.90;;;;;;;;;;11052128;26;20085;-60
2024/04/26 11:47:00;;;;;;;1.00;0.90;;;;;;;;;;11049697;26;20029;-60
2024/04/26 11:52:02;;;;;;;1.10;0.90;;;;;;;;;;11051068;26;20074;-60
2024/04/26 11:57:03;;;;;;;1.10;0.90;;;;;;;;;;11057349;26;20001;-60
2024/04/26 12:02:04;;;;;;;0.73;0.73;;;;;;;;;;11038710;26;20018;-60
2024/04/26 12:07:05;;;;;;;1.27;0.80;;;;;;;;;;11036069;26;20006;-60
2024/04/26 12:12:06;;;;;;;1.15;0.98;;;;;;;;;;11039724;26;20001;-60
2024/04/26 12:17:08;;;;;;;1.05;0.98;;;;;;;;;;11016083;26;20006;-60
2024/04/26 12:22:10;;;;;;;0.95;0.80;;;;;;;;;;11045084;26;20017;-60
2024/04/26 12:27:12;;;;;;;2.25;0.80;;;;;;;;;;11052222;26;20033;-59
2024/04/26 12:32:14;;;;;;;0.90;0.90;;;;;;;;;;11062030;26;20000;-59
2024/04/26 12:37:15;;;;;;;1.02;0.70;;;;;;;;;;11058089;26;20106;-60
2024/04/26 12:42:18;;;;;;;0.70;0.70;;;;;;;;;;11034648;26;20096;-60
2024/04/26 12:47:21;;;;;;;0.70;0.70;;;;;;;;;;11014868;26;20005;-60
2024/04/26 12:52:22;;;;;;;0.95;0.93;;;;;;;;;;11055178;26;20090;-59
2024/04/26 12:57:27;;;;;;;2.40;0.93;;;;;;;;;;11036014;26;20005;-60
2024/04/26 13:02:28;;;;;;;0.80;0.80;;;;;;;;;;11015248;26;20378;-60
2024/04/26 13:07:29;;;;;;;0.98;0.93;;;;;;;;;;11033235;26;20444;-59
2024/04/26 13:12:34;;;;;;;1.85;0.82;;;;;;;;;;11055480;26;20347;-60
2024/04/26 13:17:35;;;;;;;1.10;1.00;;;;;;;;;;11055504;26;20033;-60
2024/04/26 13:22:36;;;;;;;2.50;1.00;;;;;;;;;;11032881;26;20037;-60
2024/04/26 13:27:38;;;;;;;2.75;1.00;;;;;;;;;;11065745;26;20005;-60
2024/04/26 13:32:40;;;;;;;0.70;0.70;;;;;;;;;;11044025;26;20000;-60
2024/04/26 13:37:41;;;;;;;0.77;0.77;;;;;;;;;;11037557;26;20088;-61
2024/04/26 13:42:42;;;;;;;0.88;0.88;;;;;;;;;;11055165;26;20011;-61
2024/04/26 13:47:43;;;;;;;2.05;0.80;;;;;;;;;;11002941;26;20037;-61
2024/04/26 13:52:44;;;;;;;0.98;0.88;;;;;;;;;;11053383;26;20016;-60
2024/04/26 13:57:46;;;;;;;1.27;1.00;;;;;;;;;;11009269;26;20024;-60
2024/04/26 14:02:47;;;;;;;0.98;0.88;;;;;;;;;;11032526;26;20021;-60
2024/04/26 14:07:48;;;;;;;1.67;1.00;;;;;;;;;;11053985;26;20012;-60
2024/04/26 14:12:50;;;;;;;0.90;0.90;;;;;;;;;;11054529;26;20000;-60
2024/04/26 14:17:51;;;;;;;1.63;1.10;;;;;;;;;;11055243;26;20012;-60
2024/04/26 14:22:52;;;;;;;0.80;0.80;;;;;;;;;;11031345;26;20552;-60
2024/04/26 14:27:53;;;;;;;0.85;0.80;;;;;;;;;;11029159;26;20134;-60
2024/04/26 14:32:57;;;;;;;0.95;0.93;;;;;;;;;;11025481;26;20000;-60
2024/04/26 14:37:58;;;;;;;1.05;1.00;;;;;;;;;;11060974;26;20011;-60
2024/04/26 14:42:59;;;;;;;0.98;0.98;;;;;;;;;;11053356;26;20033;-60
2024/04/26 14:48:00;;;;;;;1.65;1.17;;;;;;;;;;11052289;26;20100;-60
2024/04/26 14:53:01;;;;;;;0.80;0.80;;;;;;;;;;11029454;26;20056;-60
2024/04/26 14:58:02;;;;;;;0.90;0.90;;;;;;;;;;11052866;26;20037;-61
2024/04/26 15:03:03;;;;;;;1.10;0.90;;;;;;;;;;11050667;26;20107;-60
2024/04/26 15:08:05;;;;;;;0.90;0.90;;;;;;;;;;11051744;26;20103;-60
2024/04/26 15:13:06;;;;;;;0.85;0.85;;;;;;;;;;11053294;26;20001;-60
2024/04/26 15:18:07;;;;;;;0.80;0.80;;;;;;;;;;11049886;26;20025;-60
2024/04/26 15:23:08;;;;;;;0.80;0.80;;;;;;;;;;11046765;26;20095;-61
2024/04/26 15:28:09;;;;;;;0.90;0.90;;;;;;;;;;11040774;26;20658;-60
2024/04/26 15:33:11;;;;;;;0.80;0.75;;;;;;;;;;11062506;26;20028;-60
2024/04/26 15:38:14;;;;;;;0.82;0.82;;;;;;;;;;11040676;26;20078;-60
2024/04/26 15:43:16;;;;;;;1.10;1.00;;;;;;;;;;11035086;26;20016;-61
2024/04/26 15:48:17;;;;;;;0.98;0.98;;;;;;;;;;11031335;26;20321;-60
2024/04/26 15:53:18;;;;;;;1.77;1.00;;;;;;;;;;11035513;26;20093;-60
2024/04/26 15:58:19;;;;;;;0.85;0.85;;;;;;;;;;11033413;26;20386;-60
2024/04/26 16:03:21;;;;;;;0.80;0.80;;;;;;;;;;11014213;26;20029;-60
2024/04/26 16:08:22;;;;;;;2.45;1.10;;;;;;;;;;11056527;26;20017;-61
2024/04/26 16:13:23;;;;;;;1.95;0.90;;;;;;;;;;11055099;26;20096;-60
2024/04/26 16:18:24;;;;;;;0.70;0.70;;;;;;;;;;11034322;26;20494;-60
2024/04/26 16:23:25;;;;;;;1.85;0.93;;;;;;;;;;11025739;26;20010;-60
2024/04/26 16:28:27;;;;;;;1.02;0.98;;;;;;;;;;11019236;26;20012;-60
2024/04/26 16:33:28;;;;;;;0.82;0.82;;;;;;;;;;11056697;26;20356;-60
2024/04/26 16:38:31;;;;;;;1.00;0.88;;;;;;;;;;11045959;26;20029;-60
2024/04/26 16:43:32;;;;;;;0.95;0.93;;;;;;;;;;11019577;26;20027;-60
2024/04/26 16:48:33;;;;;;;1.00;1.00;;;;;;;;;;11054795;26;20016;-60
2024/04/26 16:53:35;;;;;;;1.00;1.00;;;;;;;;;;11054152;26;20093;-60
2024/04/26 16:58:36;;;;;;;1.30;1.15;;;;;;;;;;11031356;26;20413;-60
2024/04/26 17:03:37;;;;;;;0.80;0.80;;;;;;;;;;11057367;26;20038;-60
2024/04/26 17:08:38;;;;;;;1.00;1.00;;;;;;;;;;11056208;26;20016;-60
2024/04/26 17:13:39;;;;;;;1.30;0.85;;;;;;;;;;11033036;26;20004;-60
2024/04/26 17:18:40;;;;;;;0.85;0.85;;;;;;;;;;11032230;26;20111;-60
2024/04/26 17:23:42;;;;;;;1.23;1.00;;;;;;;;;;11054266;26;20025;-60
2024/04/26 17:28:43;;;;;;;0.90;0.90;;;;;;;;;;11052952;26;20001;-61
2024/04/26 17:33:45;;;;;;;1.00;0.90;;;;;;;;;;11064742;26;20036;-60
2024/04/26 17:38:46;;;;;;;1.95;0.95;;;;;;;;;;11029260;26;20001;-60
2024/04/26 17:43:48;;;;;;;0.95;0.90;;;;;;;;;;11009522;26;20468;-60
2024/04/26 17:48:49;;;;;;;1.10;0.90;;;;;;;;;;11052461;26;20054;-60
2024/04/26 17:53:50;;;;;;;1.27;0.90;;;;;;;;;;11001311;26;20029;-61
2024/04/26 17:58:52;;;;;;;0.90;0.90;;;;;;;;;;11053531;26;20019;-60
2024/04/26 18:03:53;;;;;;;0.93;0.93;;;;;;;;;;11054399;26;20040;-60
2024/04/26 18:08:54;;;;;;;0.85;0.85;;;;;;;;;;11013236;26;20345;-60
2024/04/26 18:13:59;;;;;;;0.95;0.80;;;;;;;;;;11029238;26;19997;-60
2024/04/26 18:19:01;;;;;;;0.95;0.80;;;;;;;;;;11031959;26;20511;-60
2024/04/26 18:24:02;;;;;;;1.00;0.95;;;;;;;;;;11040121;26;20094;-60
2024/04/26 18:29:03;;;;;;;1.00;1.00;;;;;;;;;;11053909;26;20310;-61
2024/04/26 18:34:04;;;;;;;2.88;1.10;;;;;;;;;;11059902;26;20001;-60
2024/04/26 18:39:06;;;;;;;1.15;1.05;;;;;;;;;;11008504;26;20377;-60
2024/04/26 18:44:08;;;;;;;1.25;1.15;;;;;;;;;;11034109;26;20103;-59
2024/04/26 18:49:09;;;;;;;1.90;1.10;;;;;;;;;;11042451;26;20005;-59
2024/04/26 18:54:11;;;;;;;2.72;1.02;;;;;;;;;;11043815;26;19997;-59
2024/04/26 18:59:12;;;;;;;2.25;0.90;;;;;;;;;;11037320;26;20392;-59
2024/04/26 19:04:13;;;;;;;1.17;1.08;;;;;;;;;;11037034;26;20029;-60
2024/04/26 19:09:14;;;;;;;1.08;1.00;;;;;;;;;;11026884;26;20086;-59
2024/04/26 19:14:15;;;;;;;5.65;1.25;;;;;;;;;;11050152;26;20045;-60
2024/04/26 19:19:16;;;;;;;1.52;1.08;;;;;;;;;;11047177;26;20119;-60
2024/04/26 19:24:18;;;;;;;2.13;1.50;;;;;;;;;;11037041;26;20001;-60
2024/04/26 19:29:20;;;;;;;3.58;1.25;;;;;;;;;;11032015;26;20020;-60
2024/04/26 19:34:21;;;;;;;2.25;1.40;;;;;;;;;;11038777;26;20020;-61
2024/04/26 19:39:23;;;;;;;1.45;1.20;;;;;;;;;;11035503;26;20149;-61
2024/04/26 19:44:24;;;;;;;2.28;1.30;;;;;;;;;;11041701;26;20020;-60
2024/04/26 19:49:27;;;;;;;2.50;1.60;;;;;;;;;;11034118;26;19997;-60
2024/04/26 19:59:48;;;;;;;2.70;1.55;;;;;;;;;;11033639;26;20036;-61
2024/04/26 20:04:49;;;;;;;3.28;1.80;;;;;;;;;;11021876;26;20137;-60
2024/04/26 20:09:50;;;;;;;2.80;1.13;;;;;;;;;;11049764;26;20004;-60
2024/04/26 20:14:51;;;;;;;2.25;1.50;;;;;;;;;;11050314;26;20382;-61
2024/04/26 20:19:53;;;;;;;3.15;1.70;;;;;;;;;;11030115;26;20040;-61
2024/04/26 20:24:54;;;;;;;5.00;1.73;;;;;;;;;;11037537;26;20593;-61
2024/04/26 20:29:55;;;;;;;6.60;1.67;;;;;;;;;;11049990;26;20044;-61
2024/04/26 20:34:58;;;;;;;5.20;1.50;;;;;;;;;;11037911;26;20380;-60
2024/04/26 20:39:59;;;;;;;15.57;1.83;;;;;;;;;;11044011;26;20016;-60
2024/04/26 20:45:00;;;;;;;9.60;1.98;;;;;;;;;;11037465;26;20041;-61
2024/04/26 20:50:01;;;;;;;5.70;1.70;;;;;;;;;;11051289;26;20048;-60
2024/04/26 20:55:03;;;;;;;5.40;1.40;;;;;;;;;;11028147;26;20097;-61
2024/04/26 21:00:04;;;;;;;6.50;2.00;;;;;;;;;;11032107;26;20425;-61
2024/04/26 21:05:06;;;;;;;6.00;1.65;;;;;;;;;;11010315;26;20048;-61
2024/04/26 21:10:10;;;;;;;7.63;1.90;;;;;;;;;;11035172;26;20546;-61
2024/04/26 21:15:11;;;;;;;5.88;1.77;;;;;;;;;;11055456;26;20024;-61
2024/04/26 21:20:12;;;;;;;5.32;1.90;;;;;;;;;;11046877;26;20014;-61
2024/04/26 21:25:15;;;;;;;5.03;1.67;;;;;;;;;;11021486;26;20021;-61
2024/04/26 21:30:17;;;;;;;4.78;1.60;;;;;;;;;;11043439;26;20005;-61
2024/04/26 21:35:19;;;;;;;8.00;1.60;;;;;;;;;;11047502;26;20104;-61
2024/04/26 21:40:20;;;;;;;2.00;1.27;;;;;;;;;;11039268;26;20029;-61
2024/04/26 21:45:21;;;;;;;3.30;1.40;;;;;;;;;;11044519;26;20009;-61
2024/04/26 21:50:22;;;;;;;5.65;2.47;;;;;;;;;;11040583;26;20080;-61
2024/04/26 21:55:24;;;;;;;3.92;1.30;;;;;;;;;;11053276;26;20001;-61
2024/04/26 22:00:25;;;;;;;2.83;1.42;;;;;;;;;;11024200;26;20360;-61
2024/04/26 22:05:26;;;;;;;3.42;1.70;;;;;;;;;;11053308;26;20083;-60
2024/04/26 22:10:28;;;;;;;5.07;1.45;;;;;;;;;;11041000;26;19997;-61
2024/04/26 22:15:29;;;;;;;3.60;1.50;;;;;;;;;;11042304;26;20044;-61
2024/04/26 22:20:30;;;;;;;5.95;1.73;;;;;;;;;;11054487;26;20012;-61
2024/04/26 22:25:31;;;;;;;7.05;1.52;;;;;;;;;;11034226;26;20459;-61
2024/04/26 22:30:33;;;;;;;3.53;1.40;;;;;;;;;;11041045;26;20032;-59
2024/04/26 22:35:34;;;;;;;10.48;1.98;;;;;;;;;;11044672;26;20111;-59
2024/04/26 22:40:35;;;;;;;4.65;1.80;;;;;;;;;;11050517;26;20033;-59
2024/04/26 22:45:36;;;;;;;5.20;1.83;;;;;;;;;;11054571;26;20108;-60
2024/04/26 22:50:37;;;;;;;16.92;2.28;;;;;;;;;;11054094;26;20029;-60
2024/04/26 22:55:38;;;;;;;6.93;1.75;;;;;;;;;;11040230;26;20078;-60
2024/04/26 23:00:39;;;;;;;5.75;1.40;;;;;;;;;;11052318;26;20044;-59
2024/04/26 23:05:40;;;;;;;2.67;1.60;;;;;;;;;;11051463;26;20072;-60
2024/04/26 23:10:42;;;;;;;2.38;1.63;;;;;;;;;;11050631;26;20036;-60
2024/04/26 23:15:43;;;;;;;2.35;1.48;;;;;;;;;;11051708;26;20012;-60
2024/04/26 23:20:44;;;;;;;2.70;1.45;;;;;;;;;;11051659;26;20001;-60
2024/04/26 23:25:48;;;;;;;1.50;1.35;;;;;;;;;;11052014;26;19993;-59
2024/04/26 23:30:49;;;;;;;3.08;1.55;;;;;;;;;;11051396;26;20019;-59
2024/04/26 23:35:50;;;;;;;4.55;1.70;;;;;;;;;;11054067;26;19997;-59
2024/04/26 23:40:52;;;;;;;4.70;1.70;;;;;;;;;;11051905;26;20460;-60
2024/04/26 23:45:53;;;;;;;3.70;1.30;;;;;;;;;;11052591;26;20032;-60
2024/04/26 23:50:54;;;;;;;3.25;1.52;;;;;;;;;;11057577;26;20005;-59
2024/04/26 23:55:55;;;;;;;2.85;1.50;;;;;;;;;;11058596;26;20012;-59
